sensor_id;sensor_type;location;lat;lon;timestamp;temperature;humidity
148;DHT22;142;50.652;12.216;2023-04-25T00:00:30;8.70;21.10
148;DHT22;142;50.652;12.216;2023-04-25T00:02:59;8.70;21.30
148;DHT22;142;50.652;12.216;2023-04-25T00:05:28;8.80;21.30
148;DHT22;142;50.652;12.216;2023-04-25T00:07:57;8.80;21.30
148;DHT22;142;50.652;12.216;2023-04-25T00:10:24;8.80;21.20
148;DHT22;142;50.652;12.216;2023-04-25T00:12:51;8.80;21.20
148;DHT22;142;50.652;12.216;2023-04-25T00:15:19;8.80;21.10
148;DHT22;142;50.652;12.216;2023-04-25T00:17:47;8.80;21.20
148;DHT22;142;50.652;12.216;2023-04-25T00:20:15;8.80;21.20
148;DHT22;142;50.652;12.216;2023-04-25T00:22:43;8.80;21.30
148;DHT22;142;50.652;12.216;2023-04-25T00:25:09;8.70;21.10
148;DHT22;142;50.652;12.216;2023-04-25T00:27:37;8.70;21.10
148;DHT22;142;50.652;12.216;2023-04-25T00:30:05;8.70;21.40
148;DHT22;142;50.652;12.216;2023-04-25T00:32:33;8.80;21.60
148;DHT22;142;50.652;12.216;2023-04-25T00:35:01;8.80;21.30
148;DHT22;142;50.652;12.216;2023-04-25T00:37:29;8.80;21.30
148;DHT22;142;50.652;12.216;2023-04-25T00:39:58;8.80;21.40
148;DHT22;142;50.652;12.216;2023-04-25T00:42:25;8.80;21.30
148;DHT22;142;50.652;12.216;2023-04-25T00:44:52;8.90;21.40
148;DHT22;142;50.652;12.216;2023-04-25T00:47:21;9.00;21.30
148;DHT22;142;50.652;12.216;2023-04-25T00:49:48;9.00;21.20
148;DHT22;142;50.652;12.216;2023-04-25T00:52:15;9.10;21.10
148;DHT22;142;50.652;12.216;2023-04-25T00:54:44;9.10;21.20
148;DHT22;142;50.652;12.216;2023-04-25T00:57:11;9.20;21.10
148;DHT22;142;50.652;12.216;2023-04-25T00:59:41;9.20;20.90
148;DHT22;142;50.652;12.216;2023-04-25T01:02:11;9.20;20.90
148;DHT22;142;50.652;12.216;2023-04-25T01:04:38;9.20;21.00
148;DHT22;142;50.652;12.216;2023-04-25T01:07:06;9.20;20.80
148;DHT22;142;50.652;12.216;2023-04-25T01:09:34;9.30;21.00
148;DHT22;142;50.652;12.216;2023-04-25T01:12:03;9.30;21.00
148;DHT22;142;50.652;12.216;2023-04-25T01:14:30;9.30;20.80
148;DHT22;142;50.652;12.216;2023-04-25T01:16:58;9.40;20.90
148;DHT22;142;50.652;12.216;2023-04-25T01:19:25;9.40;20.80
148;DHT22;142;50.652;12.216;2023-04-25T01:21:54;9.50;20.80
148;DHT22;142;50.652;12.216;2023-04-25T01:24:21;9.50;20.80
148;DHT22;142;50.652;12.216;2023-04-25T01:26:48;9.50;20.70
148;DHT22;142;50.652;12.216;2023-04-25T01:29:17;9.60;20.90
148;DHT22;142;50.652;12.216;2023-04-25T01:31:44;9.60;20.70
148;DHT22;142;50.652;12.216;2023-04-25T01:34:12;9.60;20.70
148;DHT22;142;50.652;12.216;2023-04-25T01:36:39;9.70;20.50
148;DHT22;142;50.652;12.216;2023-04-25T01:39:09;9.60;20.40
148;DHT22;142;50.652;12.216;2023-04-25T01:41:36;9.70;20.50
148;DHT22;142;50.652;12.216;2023-04-25T01:44:04;9.70;20.50
148;DHT22;142;50.652;12.216;2023-04-25T01:46:33;9.80;20.50
148;DHT22;142;50.652;12.216;2023-04-25T01:49:01;9.80;20.60
148;DHT22;142;50.652;12.216;2023-04-25T01:51:28;9.90;20.50
148;DHT22;142;50.652;12.216;2023-04-25T01:53:56;9.90;20.50
148;DHT22;142;50.652;12.216;2023-04-25T01:56:30;9.80;20.50
148;DHT22;142;50.652;12.216;2023-04-25T01:58:57;9.80;20.40
148;DHT22;142;50.652;12.216;2023-04-25T02:01:24;9.90;20.60
148;DHT22;142;50.652;12.216;2023-04-25T02:03:51;9.90;20.60
148;DHT22;142;50.652;12.216;2023-04-25T02:06:19;10.00;20.60
148;DHT22;142;50.652;12.216;2023-04-25T02:08:46;10.10;20.60
148;DHT22;142;50.652;12.216;2023-04-25T02:11:13;10.10;20.60
148;DHT22;142;50.652;12.216;2023-04-25T02:13:42;10.00;20.50
148;DHT22;142;50.652;12.216;2023-04-25T02:16:09;10.00;20.70
148;DHT22;142;50.652;12.216;2023-04-25T02:18:37;10.10;20.70
148;DHT22;142;50.652;12.216;2023-04-25T02:21:04;10.10;20.80
148;DHT22;142;50.652;12.216;2023-04-25T02:23:32;10.10;20.60
148;DHT22;142;50.652;12.216;2023-04-25T02:25:59;10.10;20.70
148;DHT22;142;50.652;12.216;2023-04-25T02:28:26;10.10;20.90
148;DHT22;142;50.652;12.216;2023-04-25T02:30:55;10.10;20.70
148;DHT22;142;50.652;12.216;2023-04-25T02:33:22;10.00;20.80
148;DHT22;142;50.652;12.216;2023-04-25T02:35:49;10.00;20.80
148;DHT22;142;50.652;12.216;2023-04-25T02:38:16;10.00;20.80
148;DHT22;142;50.652;12.216;2023-04-25T02:40:43;10.00;20.90
148;DHT22;142;50.652;12.216;2023-04-25T02:43:10;10.00;20.90
148;DHT22;142;50.652;12.216;2023-04-25T02:45:37;9.90;20.70
148;DHT22;142;50.652;12.216;2023-04-25T02:48:06;9.90;21.00
148;DHT22;142;50.652;12.216;2023-04-25T02:50:33;10.00;21.00
148;DHT22;142;50.652;12.216;2023-04-25T02:53:01;10.00;20.80
148;DHT22;142;50.652;12.216;2023-04-25T02:55:28;10.00;20.90
148;DHT22;142;50.652;12.216;2023-04-25T02:57:55;10.10;20.90
148;DHT22;142;50.652;12.216;2023-04-25T03:00:22;9.90;20.50
148;DHT22;142;50.652;12.216;2023-04-25T03:02:50;10.00;20.60
148;DHT22;142;50.652;12.216;2023-04-25T03:05:19;10.00;20.60
148;DHT22;142;50.652;12.216;2023-04-25T03:07:46;10.00;20.70
148;DHT22;142;50.652;12.216;2023-04-25T03:10:13;9.90;20.70
148;DHT22;142;50.652;12.216;2023-04-25T03:12:40;9.90;20.60
148;DHT22;142;50.652;12.216;2023-04-25T03:15:08;9.80;20.80
148;DHT22;142;50.652;12.216;2023-04-25T03:17:35;9.90;21.00
148;DHT22;142;50.652;12.216;2023-04-25T03:20:03;10.00;20.80
148;DHT22;142;50.652;12.216;2023-04-25T03:22:32;10.00;20.80
148;DHT22;142;50.652;12.216;2023-04-25T03:24:59;10.10;20.80
148;DHT22;142;50.652;12.216;2023-04-25T03:27:26;10.10;20.60
148;DHT22;142;50.652;12.216;2023-04-25T03:29:53;10.10;20.60
148;DHT22;142;50.652;12.216;2023-04-25T03:32:20;10.00;20.60
148;DHT22;142;50.652;12.216;2023-04-25T03:34:48;10.00;20.80
148;DHT22;142;50.652;12.216;2023-04-25T03:37:14;10.00;20.90
148;DHT22;142;50.652;12.216;2023-04-25T03:39:44;10.00;21.00
148;DHT22;142;50.652;12.216;2023-04-25T03:42:11;9.90;21.10
148;DHT22;142;50.652;12.216;2023-04-25T03:44:38;9.90;21.30
148;DHT22;142;50.652;12.216;2023-04-25T03:47:05;9.90;21.50
148;DHT22;142;50.652;12.216;2023-04-25T03:49:33;9.80;21.50
148;DHT22;142;50.652;12.216;2023-04-25T03:52:00;9.80;21.80
148;DHT22;142;50.652;12.216;2023-04-25T03:54:27;9.80;21.90
148;DHT22;142;50.652;12.216;2023-04-25T03:56:56;9.80;22.00
148;DHT22;142;50.652;12.216;2023-04-25T03:59:23;9.80;22.20
148;DHT22;142;50.652;12.216;2023-04-25T04:01:51;9.70;22.20
148;DHT22;142;50.652;12.216;2023-04-25T04:04:18;9.70;22.30
148;DHT22;142;50.652;12.216;2023-04-25T04:06:46;9.70;22.40
148;DHT22;142;50.652;12.216;2023-04-25T04:09:12;9.60;22.40
148;DHT22;142;50.652;12.216;2023-04-25T04:11:41;9.50;22.60
148;DHT22;142;50.652;12.216;2023-04-25T04:14:09;9.50;23.20
148;DHT22;142;50.652;12.216;2023-04-25T04:16:37;9.50;23.50
148;DHT22;142;50.652;12.216;2023-04-25T04:19:04;9.50;23.90
148;DHT22;142;50.652;12.216;2023-04-25T04:21:31;9.50;24.20
148;DHT22;142;50.652;12.216;2023-04-25T04:23:59;9.50;24.40
148;DHT22;142;50.652;12.216;2023-04-25T04:26:26;9.60;24.40
148;DHT22;142;50.652;12.216;2023-04-25T04:28:53;9.60;24.50
148;DHT22;142;50.652;12.216;2023-04-25T04:31:22;9.70;24.50
148;DHT22;142;50.652;12.216;2023-04-25T04:33:50;9.70;24.10
148;DHT22;142;50.652;12.216;2023-04-25T04:36:18;9.60;23.80
148;DHT22;142;50.652;12.216;2023-04-25T04:38:47;9.70;24.00
148;DHT22;142;50.652;12.216;2023-04-25T04:41:14;9.60;23.60
148;DHT22;142;50.652;12.216;2023-04-25T04:43:42;9.60;23.70
148;DHT22;142;50.652;12.216;2023-04-25T04:46:10;9.60;23.80
148;DHT22;142;50.652;12.216;2023-04-25T04:48:39;9.60;23.70
148;DHT22;142;50.652;12.216;2023-04-25T04:51:07;9.70;23.70
148;DHT22;142;50.652;12.216;2023-04-25T04:53:34;9.70;23.50
148;DHT22;142;50.652;12.216;2023-04-25T04:56:01;9.70;23.50
148;DHT22;142;50.652;12.216;2023-04-25T04:58:28;9.70;23.50
148;DHT22;142;50.652;12.216;2023-04-25T05:00:56;9.80;23.40
148;DHT22;142;50.652;12.216;2023-04-25T05:03:23;9.80;23.50
148;DHT22;142;50.652;12.216;2023-04-25T05:05:52;9.90;23.00
148;DHT22;142;50.652;12.216;2023-04-25T05:08:19;9.80;22.70
148;DHT22;142;50.652;12.216;2023-04-25T05:10:47;9.70;22.70
148;DHT22;142;50.652;12.216;2023-04-25T05:13:14;9.70;22.80
148;DHT22;142;50.652;12.216;2023-04-25T05:15:42;9.70;23.00
148;DHT22;142;50.652;12.216;2023-04-25T05:18:11;9.70;22.90
148;DHT22;142;50.652;12.216;2023-04-25T05:20:41;9.50;23.20
148;DHT22;142;50.652;12.216;2023-04-25T05:23:09;9.50;23.40
148;DHT22;142;50.652;12.216;2023-04-25T05:25:36;9.20;23.40
148;DHT22;142;50.652;12.216;2023-04-25T05:28:03;8.80;21.90
148;DHT22;142;50.652;12.216;2023-04-25T05:30:31;8.80;22.20
148;DHT22;142;50.652;12.216;2023-04-25T05:32:58;8.70;21.90
148;DHT22;142;50.652;12.216;2023-04-25T05:35:26;8.70;22.30
148;DHT22;142;50.652;12.216;2023-04-25T05:37:56;8.50;22.50
148;DHT22;142;50.652;12.216;2023-04-25T05:40:25;8.40;22.00
148;DHT22;142;50.652;12.216;2023-04-25T05:42:52;8.30;22.20
148;DHT22;142;50.652;12.216;2023-04-25T05:45:19;8.20;22.40
148;DHT22;142;50.652;12.216;2023-04-25T05:47:46;8.20;22.50
148;DHT22;142;50.652;12.216;2023-04-25T05:50:13;8.20;22.70
148;DHT22;142;50.652;12.216;2023-04-25T05:52:40;8.30;22.90
148;DHT22;142;50.652;12.216;2023-04-25T05:55:08;8.20;22.70
148;DHT22;142;50.652;12.216;2023-04-25T05:57:39;8.30;22.80
148;DHT22;142;50.652;12.216;2023-04-25T06:00:08;8.30;22.70
148;DHT22;142;50.652;12.216;2023-04-25T06:02:36;8.30;22.80
148;DHT22;142;50.652;12.216;2023-04-25T06:05:04;8.30;22.90
148;DHT22;142;50.652;12.216;2023-04-25T06:07:31;8.40;23.10
148;DHT22;142;50.652;12.216;2023-04-25T06:09:58;8.50;23.20
148;DHT22;142;50.652;12.216;2023-04-25T06:12:26;8.60;23.20
148;DHT22;142;50.652;12.216;2023-04-25T06:14:55;8.50;22.90
148;DHT22;142;50.652;12.216;2023-04-25T06:17:22;8.40;22.60
148;DHT22;142;50.652;12.216;2023-04-25T06:19:50;8.40;22.40
148;DHT22;142;50.652;12.216;2023-04-25T06:22:17;8.40;22.30
148;DHT22;142;50.652;12.216;2023-04-25T06:24:44;8.50;22.00
148;DHT22;142;50.652;12.216;2023-04-25T06:27:11;8.60;22.00
148;DHT22;142;50.652;12.216;2023-04-25T06:29:38;8.80;22.00
148;DHT22;142;50.652;12.216;2023-04-25T06:32:07;9.00;22.20
148;DHT22;142;50.652;12.216;2023-04-25T06:34:34;9.30;22.20
148;DHT22;142;50.652;12.216;2023-04-25T06:37:01;9.30;21.70
148;DHT22;142;50.652;12.216;2023-04-25T06:39:28;9.40;21.50
148;DHT22;142;50.652;12.216;2023-04-25T06:41:56;9.50;21.20
148;DHT22;142;50.652;12.216;2023-04-25T06:44:23;9.60;21.00
148;DHT22;142;50.652;12.216;2023-04-25T06:46:54;9.60;20.90
148;DHT22;142;50.652;12.216;2023-04-25T06:49:22;9.70;20.70
148;DHT22;142;50.652;12.216;2023-04-25T06:51:52;9.80;20.30
148;DHT22;142;50.652;12.216;2023-04-25T06:54:21;9.70;20.50
148;DHT22;142;50.652;12.216;2023-04-25T06:56:50;9.70;20.50
148;DHT22;142;50.652;12.216;2023-04-25T06:59:17;9.70;20.10
148;DHT22;142;50.652;12.216;2023-04-25T07:01:45;9.80;20.10
148;DHT22;142;50.652;12.216;2023-04-25T07:04:17;10.10;20.30
148;DHT22;142;50.652;12.216;2023-04-25T07:06:46;10.20;20.30
148;DHT22;142;50.652;12.216;2023-04-25T07:09:14;10.20;20.00
148;DHT22;142;50.652;12.216;2023-04-25T07:11:44;10.10;19.50
148;DHT22;142;50.652;12.216;2023-04-25T07:14:11;10.10;19.70
148;DHT22;142;50.652;12.216;2023-04-25T07:16:39;10.10;19.80
148;DHT22;142;50.652;12.216;2023-04-25T07:19:07;10.00;19.50
148;DHT22;142;50.652;12.216;2023-04-25T07:21:37;10.20;19.10
148;DHT22;142;50.652;12.216;2023-04-25T07:24:06;10.50;19.50
148;DHT22;142;50.652;12.216;2023-04-25T07:26:34;10.60;20.00
148;DHT22;142;50.652;12.216;2023-04-25T07:29:03;10.40;19.60
148;DHT22;142;50.652;12.216;2023-04-25T07:31:35;10.10;18.70
148;DHT22;142;50.652;12.216;2023-04-25T07:34:02;10.10;18.90
148;DHT22;142;50.652;12.216;2023-04-25T07:36:31;10.10;18.90
148;DHT22;142;50.652;12.216;2023-04-25T07:38:58;9.90;20.50
148;DHT22;142;50.652;12.216;2023-04-25T07:41:28;9.90;20.30
148;DHT22;142;50.652;12.216;2023-04-25T07:43:55;10.10;19.50
148;DHT22;142;50.652;12.216;2023-04-25T07:46:23;10.00;21.00
148;DHT22;142;50.652;12.216;2023-04-25T07:48:50;10.00;20.60
148;DHT22;142;50.652;12.216;2023-04-25T07:51:17;10.00;22.10
148;DHT22;142;50.652;12.216;2023-04-25T07:53:45;10.20;26.50
148;DHT22;142;50.652;12.216;2023-04-25T07:56:12;10.30;27.50
148;DHT22;142;50.652;12.216;2023-04-25T07:58:41;10.60;29.40
148;DHT22;142;50.652;12.216;2023-04-25T08:01:08;10.80;34.50
148;DHT22;142;50.652;12.216;2023-04-25T08:03:37;10.80;57.10
148;DHT22;142;50.652;12.216;2023-04-25T08:06:06;10.70;60.40
148;DHT22;142;50.652;12.216;2023-04-25T08:08:34;10.50;68.00
148;DHT22;142;50.652;12.216;2023-04-25T08:11:02;10.70;71.30
148;DHT22;142;50.652;12.216;2023-04-25T08:13:28;10.70;73.40
148;DHT22;142;50.652;12.216;2023-04-25T08:15:57;10.70;72.10
148;DHT22;142;50.652;12.216;2023-04-25T08:18:25;10.80;70.90
148;DHT22;142;50.652;12.216;2023-04-25T08:20:52;10.90;72.30
148;DHT22;142;50.652;12.216;2023-04-25T08:23:19;11.00;72.30
148;DHT22;142;50.652;12.216;2023-04-25T08:25:46;11.10;73.80
148;DHT22;142;50.652;12.216;2023-04-25T08:28:14;10.90;74.70
148;DHT22;142;50.652;12.216;2023-04-25T08:30:41;10.80;73.60
148;DHT22;142;50.652;12.216;2023-04-25T08:33:10;10.80;73.80
148;DHT22;142;50.652;12.216;2023-04-25T08:35:37;10.90;73.40
148;DHT22;142;50.652;12.216;2023-04-25T08:38:04;10.80;73.60
148;DHT22;142;50.652;12.216;2023-04-25T08:40:37;10.50;72.90
148;DHT22;142;50.652;12.216;2023-04-25T08:43:06;10.20;71.40
148;DHT22;142;50.652;12.216;2023-04-25T08:45:39;10.20;70.40
148;DHT22;142;50.652;12.216;2023-04-25T08:48:08;10.40;69.60
148;DHT22;142;50.652;12.216;2023-04-25T08:50:40;10.30;69.90
148;DHT22;142;50.652;12.216;2023-04-25T08:53:09;10.20;69.00
148;DHT22;142;50.652;12.216;2023-04-25T08:55:42;10.20;68.70
148;DHT22;142;50.652;12.216;2023-04-25T08:58:09;10.40;66.80
148;DHT22;142;50.652;12.216;2023-04-25T09:00:40;10.60;68.70
148;DHT22;142;50.652;12.216;2023-04-25T09:03:08;10.50;70.90
148;DHT22;142;50.652;12.216;2023-04-25T09:05:35;10.50;70.40
148;DHT22;142;50.652;12.216;2023-04-25T09:08:06;10.70;71.10
148;DHT22;142;50.652;12.216;2023-04-25T09:10:34;10.80;70.50
148;DHT22;142;50.652;12.216;2023-04-25T09:13:05;11.10;70.90
148;DHT22;142;50.652;12.216;2023-04-25T09:15:47;11.30;73.10
148;DHT22;142;50.652;12.216;2023-04-25T09:18:22;11.30;73.40
148;DHT22;142;50.652;12.216;2023-04-25T09:20:49;11.50;74.00
148;DHT22;142;50.652;12.216;2023-04-25T09:23:19;11.60;73.80
148;DHT22;142;50.652;12.216;2023-04-25T09:25:47;11.40;73.00
148;DHT22;142;50.652;12.216;2023-04-25T09:28:15;11.50;74.10
148;DHT22;142;50.652;12.216;2023-04-25T09:30:42;11.30;73.70
148;DHT22;142;50.652;12.216;2023-04-25T09:33:10;11.10;74.10
148;DHT22;142;50.652;12.216;2023-04-25T09:35:39;11.00;72.60
148;DHT22;142;50.652;12.216;2023-04-25T09:38:10;11.00;72.50
148;DHT22;142;50.652;12.216;2023-04-25T09:40:44;11.20;73.20
148;DHT22;142;50.652;12.216;2023-04-25T09:43:19;11.30;74.10
148;DHT22;142;50.652;12.216;2023-04-25T09:45:47;11.00;72.70
148;DHT22;142;50.652;12.216;2023-04-25T09:48:18;10.80;73.20
148;DHT22;142;50.652;12.216;2023-04-25T09:51:04;10.60;72.50
148;DHT22;142;50.652;12.216;2023-04-25T09:53:32;10.60;69.90
148;DHT22;142;50.652;12.216;2023-04-25T09:56:03;10.60;70.20
148;DHT22;142;50.652;12.216;2023-04-25T09:58:33;10.40;68.20
148;DHT22;142;50.652;12.216;2023-04-25T10:01:04;10.50;68.50
148;DHT22;142;50.652;12.216;2023-04-25T10:03:33;10.00;67.50
148;DHT22;142;50.652;12.216;2023-04-25T10:06:02;9.90;64.80
148;DHT22;142;50.652;12.216;2023-04-25T10:08:32;9.80;62.90
148;DHT22;142;50.652;12.216;2023-04-25T10:11:03;9.90;61.50
148;DHT22;142;50.652;12.216;2023-04-25T10:13:34;9.80;62.40
148;DHT22;142;50.652;12.216;2023-04-25T10:16:03;9.80;64.10
148;DHT22;142;50.652;12.216;2023-04-25T10:18:32;9.80;63.70
148;DHT22;142;50.652;12.216;2023-04-25T10:21:01;10.00;62.60
148;DHT22;142;50.652;12.216;2023-04-25T10:23:31;10.10;64.50
148;DHT22;142;50.652;12.216;2023-04-25T10:26:01;10.40;67.40
148;DHT22;142;50.652;12.216;2023-04-25T10:28:55;10.50;68.70
148;DHT22;142;50.652;12.216;2023-04-25T10:31:27;10.70;69.50
148;DHT22;142;50.652;12.216;2023-04-25T10:34:07;10.60;69.50
148;DHT22;142;50.652;12.216;2023-04-25T10:36:35;10.30;69.70
148;DHT22;142;50.652;12.216;2023-04-25T10:39:04;10.30;67.40
148;DHT22;142;50.652;12.216;2023-04-25T10:41:47;10.30;68.40
148;DHT22;142;50.652;12.216;2023-04-25T10:44:15;10.30;68.70
148;DHT22;142;50.652;12.216;2023-04-25T10:46:44;10.00;68.60
148;DHT22;142;50.652;12.216;2023-04-25T10:49:29;9.80;66.10
148;DHT22;142;50.652;12.216;2023-04-25T10:52:24;9.80;65.80
148;DHT22;142;50.652;12.216;2023-04-25T10:54:53;10.00;63.30
148;DHT22;142;50.652;12.216;2023-04-25T10:57:40;10.00;64.40
148;DHT22;142;50.652;12.216;2023-04-25T11:00:13;10.10;64.20
148;DHT22;142;50.652;12.216;2023-04-25T11:02:52;10.10;64.80
148;DHT22;142;50.652;12.216;2023-04-25T11:05:26;10.10;67.10
148;DHT22;142;50.652;12.216;2023-04-25T11:07:58;10.00;63.40
148;DHT22;142;50.652;12.216;2023-04-25T11:10:26;10.10;65.90
148;DHT22;142;50.652;12.216;2023-04-25T11:12:55;10.30;65.60
148;DHT22;142;50.652;12.216;2023-04-25T11:15:26;10.60;66.20
148;DHT22;142;50.652;12.216;2023-04-25T11:17:54;10.70;69.10
148;DHT22;142;50.652;12.216;2023-04-25T11:20:26;10.60;69.40
148;DHT22;142;50.652;12.216;2023-04-25T11:22:57;10.60;71.00
148;DHT22;142;50.652;12.216;2023-04-25T11:25:25;10.60;70.90
148;DHT22;142;50.652;12.216;2023-04-25T11:27:55;10.60;69.50
148;DHT22;142;50.652;12.216;2023-04-25T11:30:24;11.00;72.00
148;DHT22;142;50.652;12.216;2023-04-25T11:32:52;11.00;72.20
148;DHT22;142;50.652;12.216;2023-04-25T11:35:19;10.90;72.00
148;DHT22;142;50.652;12.216;2023-04-25T11:37:48;11.00;71.90
148;DHT22;142;50.652;12.216;2023-04-25T11:40:16;10.90;72.50
148;DHT22;142;50.652;12.216;2023-04-25T11:42:45;10.60;71.00
148;DHT22;142;50.652;12.216;2023-04-25T11:45:14;10.50;68.60
148;DHT22;142;50.652;12.216;2023-04-25T11:47:42;10.30;68.60
148;DHT22;142;50.652;12.216;2023-04-25T11:50:10;10.20;66.20
148;DHT22;142;50.652;12.216;2023-04-25T11:52:38;10.30;67.70
148;DHT22;142;50.652;12.216;2023-04-25T11:55:08;10.40;69.10
148;DHT22;142;50.652;12.216;2023-04-25T11:57:38;10.40;68.50
148;DHT22;142;50.652;12.216;2023-04-25T12:00:15;10.60;70.70
148;DHT22;142;50.652;12.216;2023-04-25T12:02:44;10.70;68.30
148;DHT22;142;50.652;12.216;2023-04-25T12:05:13;10.90;71.30
148;DHT22;142;50.652;12.216;2023-04-25T12:07:41;10.90;71.50
148;DHT22;142;50.652;12.216;2023-04-25T12:10:09;10.90;74.70
148;DHT22;142;50.652;12.216;2023-04-25T12:12:38;10.70;74.30
148;DHT22;142;50.652;12.216;2023-04-25T12:15:12;10.60;75.00
148;DHT22;142;50.652;12.216;2023-04-25T12:17:44;10.70;75.50
148;DHT22;142;50.652;12.216;2023-04-25T12:20:13;10.70;75.30
148;DHT22;142;50.652;12.216;2023-04-25T12:22:41;11.00;75.00
148;DHT22;142;50.652;12.216;2023-04-25T12:25:11;11.40;76.50
148;DHT22;142;50.652;12.216;2023-04-25T12:27:40;11.40;76.40
148;DHT22;142;50.652;12.216;2023-04-25T12:30:12;11.40;76.10
148;DHT22;142;50.652;12.216;2023-04-25T12:32:39;11.40;76.10
148;DHT22;142;50.652;12.216;2023-04-25T12:35:08;11.30;76.50
148;DHT22;142;50.652;12.216;2023-04-25T12:37:36;11.20;76.10
148;DHT22;142;50.652;12.216;2023-04-25T12:40:04;11.40;76.30
148;DHT22;142;50.652;12.216;2023-04-25T12:42:35;11.60;77.20
148;DHT22;142;50.652;12.216;2023-04-25T12:45:02;11.90;76.90
148;DHT22;142;50.652;12.216;2023-04-25T12:47:29;12.00;76.70
148;DHT22;142;50.652;12.216;2023-04-25T12:49:56;12.10;77.40
148;DHT22;142;50.652;12.216;2023-04-25T12:52:25;11.80;77.10
148;DHT22;142;50.652;12.216;2023-04-25T12:54:53;11.80;78.30
148;DHT22;142;50.652;12.216;2023-04-25T12:57:20;11.50;78.00
148;DHT22;142;50.652;12.216;2023-04-25T12:59:51;11.30;77.90
148;DHT22;142;50.652;12.216;2023-04-25T13:02:18;11.20;78.30
148;DHT22;142;50.652;12.216;2023-04-25T13:04:45;11.20;78.50
148;DHT22;142;50.652;12.216;2023-04-25T13:07:12;11.00;82.80
148;DHT22;142;50.652;12.216;2023-04-25T13:09:41;11.10;82.70
148;DHT22;142;50.652;12.216;2023-04-25T13:12:09;11.00;84.20
148;DHT22;142;50.652;12.216;2023-04-25T13:14:36;11.00;84.80
148;DHT22;142;50.652;12.216;2023-04-25T13:17:03;10.90;84.80
148;DHT22;142;50.652;12.216;2023-04-25T13:19:30;11.00;84.70
148;DHT22;142;50.652;12.216;2023-04-25T13:21:58;11.10;84.90
148;DHT22;142;50.652;12.216;2023-04-25T13:24:25;11.60;84.90
148;DHT22;142;50.652;12.216;2023-04-25T13:26:54;11.70;82.10
148;DHT22;142;50.652;12.216;2023-04-25T13:29:21;11.80;81.60
148;DHT22;142;50.652;12.216;2023-04-25T13:31:48;12.00;80.70
148;DHT22;142;50.652;12.216;2023-04-25T13:34:15;12.20;80.60
148;DHT22;142;50.652;12.216;2023-04-25T13:36:42;12.20;79.80
148;DHT22;142;50.652;12.216;2023-04-25T13:39:10;12.20;80.00
148;DHT22;142;50.652;12.216;2023-04-25T13:41:38;11.80;80.50
148;DHT22;142;50.652;12.216;2023-04-25T13:44:06;11.70;82.50
148;DHT22;142;50.652;12.216;2023-04-25T13:46:37;11.90;80.00
148;DHT22;142;50.652;12.216;2023-04-25T13:49:05;12.00;77.40
148;DHT22;142;50.652;12.216;2023-04-25T13:51:32;11.90;77.70
148;DHT22;142;50.652;12.216;2023-04-25T13:53:59;12.20;77.30
148;DHT22;142;50.652;12.216;2023-04-25T13:56:26;12.10;76.40
148;DHT22;142;50.652;12.216;2023-04-25T13:58:53;12.00;77.20
148;DHT22;142;50.652;12.216;2023-04-25T14:01:22;11.90;77.50
148;DHT22;142;50.652;12.216;2023-04-25T14:03:49;11.80;77.80
148;DHT22;142;50.652;12.216;2023-04-25T14:06:16;12.20;77.20
148;DHT22;142;50.652;12.216;2023-04-25T14:08:48;12.40;76.60
148;DHT22;142;50.652;12.216;2023-04-25T14:11:15;12.10;77.40
148;DHT22;142;50.652;12.216;2023-04-25T14:13:44;12.10;77.70
148;DHT22;142;50.652;12.216;2023-04-25T14:16:11;12.10;79.00
148;DHT22;142;50.652;12.216;2023-04-25T14:18:41;11.70;81.00
148;DHT22;142;50.652;12.216;2023-04-25T14:21:09;11.40;82.90
148;DHT22;142;50.652;12.216;2023-04-25T14:23:36;11.30;83.30
148;DHT22;142;50.652;12.216;2023-04-25T14:26:03;11.30;83.70
148;DHT22;142;50.652;12.216;2023-04-25T14:28:31;11.20;83.60
148;DHT22;142;50.652;12.216;2023-04-25T14:30:58;11.30;83.60
148;DHT22;142;50.652;12.216;2023-04-25T14:33:26;11.00;82.80
148;DHT22;142;50.652;12.216;2023-04-25T14:35:54;10.80;82.30
148;DHT22;142;50.652;12.216;2023-04-25T14:38:21;10.90;83.00
148;DHT22;142;50.652;12.216;2023-04-25T14:40:51;10.90;82.10
148;DHT22;142;50.652;12.216;2023-04-25T14:43:19;11.10;82.30
148;DHT22;142;50.652;12.216;2023-04-25T14:45:46;10.90;81.80
148;DHT22;142;50.652;12.216;2023-04-25T14:48:14;10.70;82.90
148;DHT22;142;50.652;12.216;2023-04-25T14:50:42;10.80;82.90
148;DHT22;142;50.652;12.216;2023-04-25T14:53:10;10.80;82.30
148;DHT22;142;50.652;12.216;2023-04-25T14:55:38;11.00;82.40
148;DHT22;142;50.652;12.216;2023-04-25T14:58:06;10.90;81.50
148;DHT22;142;50.652;12.216;2023-04-25T15:00:34;10.90;81.20
148;DHT22;142;50.652;12.216;2023-04-25T15:03:01;11.10;81.30
148;DHT22;142;50.652;12.216;2023-04-25T15:05:28;11.40;80.20
148;DHT22;142;50.652;12.216;2023-04-25T15:07:56;11.70;79.40
148;DHT22;142;50.652;12.216;2023-04-25T15:10:25;11.80;78.90
148;DHT22;142;50.652;12.216;2023-04-25T15:12:52;11.60;79.00
148;DHT22;142;50.652;12.216;2023-04-25T15:15:20;11.60;79.50
148;DHT22;142;50.652;12.216;2023-04-25T15:17:49;11.60;79.80
148;DHT22;142;50.652;12.216;2023-04-25T15:20:17;11.90;77.00
148;DHT22;142;50.652;12.216;2023-04-25T15:22:45;12.00;77.10
148;DHT22;142;50.652;12.216;2023-04-25T15:25:15;12.20;75.80
148;DHT22;142;50.652;12.216;2023-04-25T15:27:45;12.00;74.60
148;DHT22;142;50.652;12.216;2023-04-25T15:30:15;11.90;74.90
148;DHT22;142;50.652;12.216;2023-04-25T15:32:43;11.70;74.20
148;DHT22;142;50.652;12.216;2023-04-25T15:35:10;11.50;73.60
148;DHT22;142;50.652;12.216;2023-04-25T15:37:38;11.50;74.40
148;DHT22;142;50.652;12.216;2023-04-25T15:40:07;11.10;74.30
148;DHT22;142;50.652;12.216;2023-04-25T15:42:40;10.90;76.20
148;DHT22;142;50.652;12.216;2023-04-25T15:45:10;10.70;75.50
148;DHT22;142;50.652;12.216;2023-04-25T15:47:38;10.70;74.90
148;DHT22;142;50.652;12.216;2023-04-25T15:50:07;10.80;75.00
148;DHT22;142;50.652;12.216;2023-04-25T15:52:35;10.60;74.90
148;DHT22;142;50.652;12.216;2023-04-25T15:55:04;10.60;75.50
148;DHT22;142;50.652;12.216;2023-04-25T15:57:33;10.70;75.30
148;DHT22;142;50.652;12.216;2023-04-25T16:00:00;10.80;74.90
148;DHT22;142;50.652;12.216;2023-04-25T16:02:34;11.10;75.00
148;DHT22;142;50.652;12.216;2023-04-25T16:05:01;11.40;73.50
148;DHT22;142;50.652;12.216;2023-04-25T16:07:28;11.30;73.50
148;DHT22;142;50.652;12.216;2023-04-25T16:09:55;11.00;73.60
148;DHT22;142;50.652;12.216;2023-04-25T16:12:22;10.90;74.40
148;DHT22;142;50.652;12.216;2023-04-25T16:14:49;11.00;74.80
148;DHT22;142;50.652;12.216;2023-04-25T16:17:16;10.90;74.10
148;DHT22;142;50.652;12.216;2023-04-25T16:19:45;11.00;74.80
148;DHT22;142;50.652;12.216;2023-04-25T16:22:12;11.00;73.70
148;DHT22;142;50.652;12.216;2023-04-25T16:24:41;11.10;73.30
148;DHT22;142;50.652;12.216;2023-04-25T16:27:08;10.70;73.40
148;DHT22;142;50.652;12.216;2023-04-25T16:29:35;10.60;74.50
148;DHT22;142;50.652;12.216;2023-04-25T16:32:02;10.60;74.80